sensor_id;sensor_type;location;lat;lon;timestamp;pressure;altitude;pressure_sealevel;temperature;humidity
76478;BME280;65309;49.790;18.972;2023-04-25T00:00:34;95658.53;;;8.84;100.00
76478;BME280;65309;49.790;18.972;2023-04-25T00:05:54;95655.22;;;8.74;100.00
76478;BME280;65309;49.790;18.972;2023-04-25T00:11:00;95657.94;;;8.63;97.18
76478;BME280;65309;49.790;18.972;2023-04-25T00:16:03;95658.94;;;8.65;97.32
76478;BME280;65309;49.790;18.972;2023-04-25T00:21:06;95663.47;;;8.68;96.19
76478;BME280;65309;49.790;18.972;2023-04-25T00:26:09;95655.47;;;8.70;96.06
76478;BME280;65309;49.790;18.972;2023-04-25T00:31:11;95663.97;;;8.72;94.99
76478;BME280;65309;49.790;18.972;2023-04-25T00:36:13;95668.16;;;8.57;96.69
76478;BME280;65309;49.790;18.972;2023-04-25T00:41:18;95668.41;;;8.53;94.64
76478;BME280;65309;49.790;18.972;2023-04-25T00:46:20;95668.09;;;8.46;95.72
76478;BME280;65309;49.790;18.972;2023-04-25T00:51:23;95670.66;;;8.55;94.56
76478;BME280;65309;49.790;18.972;2023-04-25T00:56:28;95667.31;;;8.40;96.25
76478;BME280;65309;49.790;18.972;2023-04-25T01:01:30;95676.34;;;8.40;97.15
76478;BME280;65309;49.790;18.972;2023-04-25T01:06:33;95678.38;;;8.45;97.01
76478;BME280;65309;49.790;18.972;2023-04-25T01:11:36;95684.06;;;8.36;98.94
76478;BME280;65309;49.790;18.972;2023-04-25T01:16:38;95683.88;;;8.45;96.60
76478;BME280;65309;49.790;18.972;2023-04-25T01:21:42;95692.44;;;8.47;97.73
76478;BME280;65309;49.790;18.972;2023-04-25T01:26:44;95687.09;;;8.38;98.33
76478;BME280;65309;49.790;18.972;2023-04-25T01:31:51;95683.84;;;8.40;98.49
76478;BME280;65309;49.790;18.972;2023-04-25T01:36:55;95685.63;;;8.43;99.15
76478;BME280;65309;49.790;18.972;2023-04-25T01:41:59;95697.38;;;8.38;94.99
76478;BME280;65309;49.790;18.972;2023-04-25T01:47:01;95697.69;;;8.14;97.42
76478;BME280;65309;49.790;18.972;2023-04-25T01:52:04;95705.41;;;8.10;98.48
76478;BME280;65309;49.790;18.972;2023-04-25T01:57:06;95713.78;;;7.95;99.05
76478;BME280;65309;49.790;18.972;2023-04-25T02:02:08;95715.47;;;7.87;99.62
76478;BME280;65309;49.790;18.972;2023-04-25T02:07:12;95712.44;;;7.85;99.11
76478;BME280;65309;49.790;18.972;2023-04-25T02:12:14;95716.66;;;7.80;99.31
76478;BME280;65309;49.790;18.972;2023-04-25T02:17:16;95724.16;;;7.80;98.63
76478;BME280;65309;49.790;18.972;2023-04-25T02:22:19;95731.88;;;7.76;98.33
76478;BME280;65309;49.790;18.972;2023-04-25T02:27:21;95730.75;;;7.62;97.79
76478;BME280;65309;49.790;18.972;2023-04-25T02:32:23;95734.41;;;7.54;97.93
76478;BME280;65309;49.790;18.972;2023-04-25T02:37:27;95731.69;;;7.33;97.81
76478;BME280;65309;49.790;18.972;2023-04-25T02:42:29;95731.41;;;7.31;97.52
76478;BME280;65309;49.790;18.972;2023-04-25T02:47:31;95734.47;;;7.13;96.89
76478;BME280;65309;49.790;18.972;2023-04-25T02:52:34;95742.88;;;7.10;98.02
76478;BME280;65309;49.790;18.972;2023-04-25T02:57:37;95741.41;;;7.09;97.64
76478;BME280;65309;49.790;18.972;2023-04-25T03:02:39;95737.34;;;7.04;98.77
76478;BME280;65309;49.790;18.972;2023-04-25T03:07:42;95741.31;;;7.03;98.07
76478;BME280;65309;49.790;18.972;2023-04-25T03:12:45;95728.97;;;7.13;98.93
76478;BME280;65309;49.790;18.972;2023-04-25T03:17:48;95725.91;;;7.11;99.36
76478;BME280;65309;49.790;18.972;2023-04-25T03:22:51;95732.19;;;7.12;99.79
76478;BME280;65309;49.790;18.972;2023-04-25T03:27:53;95733.16;;;7.09;99.41
76478;BME280;65309;49.790;18.972;2023-04-25T03:32:55;95743.66;;;6.90;100.00
76478;BME280;65309;49.790;18.972;2023-04-25T03:37:58;95727.34;;;6.86;100.00
76478;BME280;65309;49.790;18.972;2023-04-25T03:43:00;95739.31;;;6.83;99.59
76478;BME280;65309;49.790;18.972;2023-04-25T03:48:03;95742.94;;;6.75;99.18
76478;BME280;65309;49.790;18.972;2023-04-25T03:53:07;95738.97;;;6.76;100.00
76478;BME280;65309;49.790;18.972;2023-04-25T03:58:09;95747.13;;;6.70;100.00
76478;BME280;65309;49.790;18.972;2023-04-25T04:03:11;95749.53;;;6.63;100.00
76478;BME280;65309;49.790;18.972;2023-04-25T04:08:15;95749.31;;;6.66;99.05
76478;BME280;65309;49.790;18.972;2023-04-25T04:13:16;95758.25;;;6.61;100.00
76478;BME280;65309;49.790;18.972;2023-04-25T04:18:18;95762.31;;;6.66;98.87
76478;BME280;65309;49.790;18.972;2023-04-25T04:23:22;95754.81;;;6.66;97.94
76478;BME280;65309;49.790;18.972;2023-04-25T04:28:24;95760.31;;;6.66;97.77
76478;BME280;65309;49.790;18.972;2023-04-25T04:33:28;95765.81;;;6.66;98.25
76478;BME280;65309;49.790;18.972;2023-04-25T04:38:32;95760.97;;;6.61;96.99
76478;BME280;65309;49.790;18.972;2023-04-25T04:43:34;95763.25;;;6.63;95.22
76478;BME280;65309;49.790;18.972;2023-04-25T04:48:36;95768.41;;;6.55;97.26
76478;BME280;65309;49.790;18.972;2023-04-25T04:53:40;95762.91;;;6.55;98.01
76478;BME280;65309;49.790;18.972;2023-04-25T04:58:42;95768.97;;;6.59;96.78
76478;BME280;65309;49.790;18.972;2023-04-25T05:03:44;95765.66;;;6.55;97.29
76478;BME280;65309;49.790;18.972;2023-04-25T05:08:47;95763.53;;;6.65;97.55
76478;BME280;65309;49.790;18.972;2023-04-25T05:13:51;95758.38;;;6.72;96.59
76478;BME280;65309;49.790;18.972;2023-04-25T05:18:54;95764.53;;;6.82;95.70
76478;BME280;65309;49.790;18.972;2023-04-25T05:23:57;95756.09;;;7.06;95.42
76478;BME280;65309;49.790;18.972;2023-04-25T05:29:00;95765.72;;;7.16;94.23
76478;BME280;65309;49.790;18.972;2023-04-25T05:34:02;95758.56;;;7.04;92.85
76478;BME280;65309;49.790;18.972;2023-04-25T05:39:05;95768.03;;;7.23;93.56
76478;BME280;65309;49.790;18.972;2023-04-25T05:44:08;95758.34;;;7.48;89.99
76478;BME280;65309;49.790;18.972;2023-04-25T05:49:10;95766.31;;;7.46;91.00
76478;BME280;65309;49.790;18.972;2023-04-25T05:54:13;95761.63;;;7.52;90.44
76478;BME280;65309;49.790;18.972;2023-04-25T05:59:15;95767.16;;;7.77;88.96
76478;BME280;65309;49.790;18.972;2023-04-25T06:04:17;95765.38;;;7.74;87.58
76478;BME280;65309;49.790;18.972;2023-04-25T06:09:21;95758.91;;;8.03;86.75
76478;BME280;65309;49.790;18.972;2023-04-25T06:14:23;95775.19;;;8.07;84.14
76478;BME280;65309;49.790;18.972;2023-04-25T06:19:25;95769.59;;;7.70;87.94
76478;BME280;65309;49.790;18.972;2023-04-25T06:24:28;95778.56;;;7.91;86.06
76478;BME280;65309;49.790;18.972;2023-04-25T06:29:31;95774.06;;;7.67;86.37
76478;BME280;65309;49.790;18.972;2023-04-25T06:34:33;95782.22;;;7.82;86.00
76478;BME280;65309;49.790;18.972;2023-04-25T06:39:36;95772.09;;;7.68;87.92
76478;BME280;65309;49.790;18.972;2023-04-25T06:44:42;95780.81;;;7.66;87.77
76478;BME280;65309;49.790;18.972;2023-04-25T06:49:44;95780.44;;;8.05;87.60
76478;BME280;65309;49.790;18.972;2023-04-25T06:54:47;95778.78;;;8.13;85.71
76478;BME280;65309;49.790;18.972;2023-04-25T06:59:49;95766.38;;;7.97;88.13
76478;BME280;65309;49.790;18.972;2023-04-25T07:04:51;95775.53;;;7.89;87.28
76478;BME280;65309;49.790;18.972;2023-04-25T07:09:55;95772.94;;;8.31;89.11
76478;BME280;65309;49.790;18.972;2023-04-25T07:14:57;95774.56;;;8.43;85.52
76478;BME280;65309;49.790;18.972;2023-04-25T07:19:59;95771.97;;;8.34;83.15
76478;BME280;65309;49.790;18.972;2023-04-25T07:25:03;95766.84;;;8.27;83.40
76478;BME280;65309;49.790;18.972;2023-04-25T07:30:07;95769.75;;;8.38;84.23
76478;BME280;65309;49.790;18.972;2023-04-25T07:35:10;95771.97;;;8.34;85.63
76478;BME280;65309;49.790;18.972;2023-04-25T07:40:13;95770.28;;;8.42;83.45
76478;BME280;65309;49.790;18.972;2023-04-25T07:45:17;95766.53;;;8.76;77.87
76478;BME280;65309;49.790;18.972;2023-04-25T07:50:19;95782.22;;;9.07;76.69
76478;BME280;65309;49.790;18.972;2023-04-25T07:55:23;95762.53;;;9.31;75.65
76478;BME280;65309;49.790;18.972;2023-04-25T08:00:25;95770.03;;;9.25;75.58
76478;BME280;65309;49.790;18.972;2023-04-25T08:05:27;95766.31;;;8.86;75.40
76478;BME280;65309;49.790;18.972;2023-04-25T08:10:30;95762.63;;;9.53;71.51
76478;BME280;65309;49.790;18.972;2023-04-25T08:15:32;95759.63;;;9.51;69.20
76478;BME280;65309;49.790;18.972;2023-04-25T08:20:34;95750.41;;;9.88;70.42
76478;BME280;65309;49.790;18.972;2023-04-25T08:25:38;95763.69;;;9.73;71.34
76478;BME280;65309;49.790;18.972;2023-04-25T08:30:40;95753.22;;;10.10;70.90
76478;BME280;65309;49.790;18.972;2023-04-25T08:35:44;95752.53;;;9.39;67.97
76478;BME280;65309;49.790;18.972;2023-04-25T08:40:49;95758.13;;;9.61;68.19
76478;BME280;65309;49.790;18.972;2023-04-25T08:45:53;95764.09;;;9.43;69.39
76478;BME280;65309;49.790;18.972;2023-04-25T08:50:56;95766.47;;;9.95;66.71
76478;BME280;65309;49.790;18.972;2023-04-25T08:56:01;95766.00;;;9.96;66.77
76478;BME280;65309;49.790;18.972;2023-04-25T09:01:04;95773.94;;;9.61;70.10
76478;BME280;65309;49.790;18.972;2023-04-25T09:06:07;95768.00;;;9.20;70.99
76478;BME280;65309;49.790;18.972;2023-04-25T09:11:12;95779.97;;;9.65;66.81
76478;BME280;65309;49.790;18.972;2023-04-25T09:16:14;95774.78;;;10.00;68.62
76478;BME280;65309;49.790;18.972;2023-04-25T09:21:22;95769.84;;;10.43;63.99
76478;BME280;65309;49.790;18.972;2023-04-25T09:26:25;95768.56;;;10.50;64.23
76478;BME280;65309;49.790;18.972;2023-04-25T09:31:27;95776.59;;;10.53;64.01
76478;BME280;65309;49.790;18.972;2023-04-25T09:36:30;95769.72;;;11.21;60.39
76478;BME280;65309;49.790;18.972;2023-04-25T09:41:37;95762.88;;;11.28;61.87
76478;BME280;65309;49.790;18.972;2023-04-25T09:46:39;95767.66;;;11.38;60.88
76478;BME280;65309;49.790;18.972;2023-04-25T09:51:41;95765.09;;;11.46;59.41
76478;BME280;65309;49.790;18.972;2023-04-25T09:56:46;95762.09;;;11.38;59.10
76478;BME280;65309;49.790;18.972;2023-04-25T10:01:50;95772.56;;;10.93;57.89
76478;BME280;65309;49.790;18.972;2023-04-25T10:06:52;95762.78;;;10.59;57.82
76478;BME280;65309;49.790;18.972;2023-04-25T10:11:56;95755.75;;;10.52;59.75
76478;BME280;65309;49.790;18.972;2023-04-25T10:17:00;95764.31;;;10.43;61.63
76478;BME280;65309;49.790;18.972;2023-04-25T10:22:07;95765.53;;;10.65;60.31
76478;BME280;65309;49.790;18.972;2023-04-25T10:27:11;95754.75;;;10.33;59.80
76478;BME280;65309;49.790;18.972;2023-04-25T10:32:13;95752.75;;;10.39;60.62
76478;BME280;65309;49.790;18.972;2023-04-25T10:37:15;95757.25;;;10.20;61.87
76478;BME280;65309;49.790;18.972;2023-04-25T10:42:18;95755.25;;;10.54;60.68
76478;BME280;65309;49.790;18.972;2023-04-25T10:47:34;95748.94;;;10.48;60.98
76478;BME280;65309;49.790;18.972;2023-04-25T10:52:38;95757.00;;;10.68;59.87
76478;BME280;65309;49.790;18.972;2023-04-25T10:57:44;95746.69;;;10.69;61.29
76478;BME280;65309;49.790;18.972;2023-04-25T11:02:51;95752.47;;;10.65;59.16
76478;BME280;65309;49.790;18.972;2023-04-25T11:07:54;95749.94;;;10.78;58.71
76478;BME280;65309;49.790;18.972;2023-04-25T11:13:04;95760.28;;;10.50;58.93
76478;BME280;65309;49.790;18.972;2023-04-25T11:18:06;95747.94;;;10.62;57.90
76478;BME280;65309;49.790;18.972;2023-04-25T11:23:11;95756.75;;;10.49;59.50
76478;BME280;65309;49.790;18.972;2023-04-25T11:28:20;95759.25;;;10.53;59.04
76478;BME280;65309;49.790;18.972;2023-04-25T11:33:24;95765.78;;;10.44;59.29
76478;BME280;65309;49.790;18.972;2023-04-25T11:38:27;95766.56;;;10.45;60.46
76478;BME280;65309;49.790;18.972;2023-04-25T11:43:31;95762.28;;;10.22;61.39
76478;BME280;65309;49.790;18.972;2023-04-25T11:48:37;95772.31;;;10.52;59.66
76478;BME280;65309;49.790;18.972;2023-04-25T11:53:40;95759.28;;;10.47;59.04
76478;BME280;65309;49.790;18.972;2023-04-25T11:59:01;95755.75;;;10.41;63.28
76478;BME280;65309;49.790;18.972;2023-04-25T12:04:10;95761.00;;;10.61;57.55
76478;BME280;65309;49.790;18.972;2023-04-25T12:09:14;95763.31;;;10.52;57.45
76478;BME280;65309;49.790;18.972;2023-04-25T12:14:23;95756.00;;;10.32;60.24
76478;BME280;65309;49.790;18.972;2023-04-25T12:19:32;95767.81;;;10.27;60.05
76478;BME280;65309;49.790;18.972;2023-04-25T12:24:35;95757.03;;;10.51;58.69
76478;BME280;65309;49.790;18.972;2023-04-25T12:29:51;95746.16;;;10.87;57.35
76478;BME280;65309;49.790;18.972;2023-04-25T12:34:53;95758.25;;;10.61;57.95
76478;BME280;65309;49.790;18.972;2023-04-25T12:39:55;95760.28;;;10.44;59.07
76478;BME280;65309;49.790;18.972;2023-04-25T12:44:58;95751.72;;;10.48;59.10
76478;BME280;65309;49.790;18.972;2023-04-25T12:50:00;95762.53;;;10.51;59.62
76478;BME280;65309;49.790;18.972;2023-04-25T12:55:03;95764.78;;;10.58;57.31
76478;BME280;65309;49.790;18.972;2023-04-25T13:00:08;95759.75;;;10.63;57.07
76478;BME280;65309;49.790;18.972;2023-04-25T13:05:12;95752.47;;;10.65;58.11
76478;BME280;65309;49.790;18.972;2023-04-25T13:10:14;95761.03;;;10.73;56.91
76478;BME280;65309;49.790;18.972;2023-04-25T13:15:18;95763.50;;;10.87;56.51
76478;BME280;65309;49.790;18.972;2023-04-25T13:20:20;95757.94;;;11.04;57.35
76478;BME280;65309;49.790;18.972;2023-04-25T13:25:24;95754.63;;;11.17;54.93
76478;BME280;65309;49.790;18.972;2023-04-25T13:30:27;95755.75;;;11.54;53.30
76478;BME280;65309;49.790;18.972;2023-04-25T13:35:30;95760.41;;;11.82;52.28
76478;BME280;65309;49.790;18.972;2023-04-25T13:40:32;95751.25;;;12.33;52.40
76478;BME280;65309;49.790;18.972;2023-04-25T13:45:36;95763.72;;;12.51;49.41
76478;BME280;65309;49.790;18.972;2023-04-25T13:50:38;95765.81;;;12.10;51.14
76478;BME280;65309;49.790;18.972;2023-04-25T13:55:40;95760.41;;;11.82;52.37
76478;BME280;65309;49.790;18.972;2023-04-25T14:00:43;95768.91;;;11.95;51.32
76478;BME280;65309;49.790;18.972;2023-04-25T14:05:47;95767.75;;;12.20;49.66
76478;BME280;65309;49.790;18.972;2023-04-25T14:10:49;95771.81;;;12.14;50.69
76478;BME280;65309;49.790;18.972;2023-04-25T14:15:53;95775.19;;;12.01;52.07
76478;BME280;65309;49.790;18.972;2023-04-25T14:20:55;95769.38;;;11.99;50.97
76478;BME280;65309;49.790;18.972;2023-04-25T14:25:57;95768.53;;;11.69;49.92
76478;BME280;65309;49.790;18.972;2023-04-25T14:31:00;95765.56;;;11.56;50.09
76478;BME280;65309;49.790;18.972;2023-04-25T14:36:03;95758.81;;;11.45;51.27
76478;BME280;65309;49.790;18.972;2023-04-25T14:41:05;95753.59;;;11.25;52.69
76478;BME280;65309;49.790;18.972;2023-04-25T14:46:09;95764.19;;;11.21;55.35
76478;BME280;65309;49.790;18.972;2023-04-25T14:51:11;95756.38;;;11.20;52.48
76478;BME280;65309;49.790;18.972;2023-04-25T14:56:13;95759.56;;;11.40;53.44
76478;BME280;65309;49.790;18.972;2023-04-25T15:01:16;95767.03;;;11.68;51.74
76478;BME280;65309;49.790;18.972;2023-04-25T15:06:18;95766.75;;;11.71;51.99
76478;BME280;65309;49.790;18.972;2023-04-25T15:11:20;95761.56;;;11.45;51.84
76478;BME280;65309;49.790;18.972;2023-04-25T15:16:25;95772.06;;;11.64;53.18
76478;BME280;65309;49.790;18.972;2023-04-25T15:21:27;95769.31;;;11.58;52.70
76478;BME280;65309;49.790;18.972;2023-04-25T15:26:29;95774.47;;;11.26;52.97
76478;BME280;65309;49.790;18.972;2023-04-25T15:31:40;95768.25;;;10.98;54.05
76478;BME280;65309;49.790;18.972;2023-04-25T15:37:03;95772.28;;;10.86;55.18
76478;BME280;65309;49.790;18.972;2023-04-25T15:42:05;95766.50;;;10.95;53.89
76478;BME280;65309;49.790;18.972;2023-04-25T15:47:08;95772.84;;;10.68;55.54
76478;BME280;65309;49.790;18.972;2023-04-25T15:52:10;95776.84;;;10.44;55.49
76478;BME280;65309;49.790;18.972;2023-04-25T15:57:12;95779.13;;;10.35;56.89
76478;BME280;65309;49.790;18.972;2023-04-25T16:02:16;95779.34;;;10.20;57.40
76478;BME280;65309;49.790;18.972;2023-04-25T16:07:18;95769.47;;;9.80;60.72
76478;BME280;65309;49.790;18.972;2023-04-25T16:12:20;95771.25;;;9.89;60.42
76478;BME280;65309;49.790;18.972;2023-04-25T16:17:24;95768.97;;;9.82;59.36
76478;BME280;65309;49.790;18.972;2023-04-25T16:22:26;95773.72;;;9.81;60.64
76478;BME280;65309;49.790;18.972;2023-04-25T16:27:28;95773.44;;;9.62;61.71
76478;BME280;65309;49.790;18.972;2023-04-25T16:32:31;95780.47;;;9.63;61.92
76478;BME280;65309;49.790;18.972;2023-04-25T16:37:34;95777.66;;;9.52;63.55
76478;BME280;65309;49.790;18.972;2023-04-25T16:42:36;95780.72;;;9.60;62.38
76478;BME280;65309;49.790;18.972;2023-04-25T16:47:39;95778.94;;;9.57;62.60
76478;BME280;65309;49.790;18.972;2023-04-25T16:52:41;95788.97;;;9.54;64.34
76478;BME280;65309;49.790;18.972;2023-04-25T16:57:45;95789.66;;;9.38;65.20
76478;BME280;65309;49.790;18.972;2023-04-25T17:02:50;95801.75;;;9.46;64.34
76478;BME280;65309;49.790;18.972;2023-04-25T17:07:53;95802.88;;;9.23;70.45
76478;BME280;65309;49.790;18.972;2023-04-25T17:12:55;95805.97;;;8.94;73.53
76478;BME280;65309;49.790;18.972;2023-04-25T17:17:59;95809.88;;;8.82;75.45
76478;BME280;65309;49.790;18.972;2023-04-25T17:23:01;95808.84;;;8.73;75.64
76478;BME280;65309;49.790;18.972;2023-04-25T17:28:04;95810.06;;;8.67;75.69
76478;BME280;65309;49.790;18.972;2023-04-25T17:33:07;95806.78;;;8.68;77.49
76478;BME280;65309;49.790;18.972;2023-04-25T17:38:10;95811.69;;;8.53;78.23
76478;BME280;65309;49.790;18.972;2023-04-25T17:43:12;95823.53;;;8.59;78.07
76478;BME280;65309;49.790;18.972;2023-04-25T17:48:15;95832.22;;;8.52;77.45
76478;BME280;65309;49.790;18.972;2023-04-25T17:53:17;95848.75;;;8.52;78.31
76478;BME280;65309;49.790;18.972;2023-04-25T17:58:19;95851.19;;;8.45;78.51
76478;BME280;65309;49.790;18.972;2023-04-25T18:03:23;95856.22;;;8.46;77.58
76478;BME280;65309;49.790;18.972;2023-04-25T18:08:25;95860.22;;;8.45;77.79
76478;BME280;65309;49.790;18.972;2023-04-25T18:13:27;95863.50;;;8.49;77.30
76478;BME280;65309;49.790;18.972;2023-04-25T18:18:32;95869.94;;;8.41;78.59
76478;BME280;65309;49.790;18.972;2023-04-25T18:23:36;95886.28;;;8.24;79.18
76478;BME280;65309;49.790;18.972;2023-04-25T18:28:39;95899.19;;;8.12;80.73
76478;BME280;65309;49.790;18.972;2023-04-25T18:33:43;95904.84;;;8.03;80.32
76478;BME280;65309;49.790;18.972;2023-04-25T18:38:45;95919.91;;;8.08;80.32
76478;BME280;65309;49.790;18.972;2023-04-25T18:43:51;95915.63;;;8.07;80.48
76478;BME280;65309;49.790;18.972;2023-04-25T18:48:55;95922.66;;;8.08;80.37
76478;BME280;65309;49.790;18.972;2023-04-25T18:53:58;95936.44;;;8.08;80.34
76478;BME280;65309;49.790;18.972;2023-04-25T18:59:00;95946.91;;;8.04;81.59
76478;BME280;65309;49.790;18.972;2023-04-25T19:04:03;95954.16;;;8.27;80.35
76478;BME280;65309;49.790;18.972;2023-04-25T19:09:07;95948.13;;;8.23;80.69
76478;BME280;65309;49.790;18.972;2023-04-25T19:14:12;95958.03;;;8.15;80.92
76478;BME280;65309;49.790;18.972;2023-04-25T19:19:16;95953.50;;;8.12;81.30
76478;BME280;65309;49.790;18.972;2023-04-25T19:24:18;95959.56;;;8.16;80.57
76478;BME280;65309;49.790;18.972;2023-04-25T19:29:19;95973.19;;;8.25;79.04
76478;BME280;65309;49.790;18.972;2023-04-25T19:34:23;95971.00;;;8.29;79.67
76478;BME280;65309;49.790;18.972;2023-04-25T19:39:26;95975.84;;;8.34;78.44
76478;BME280;65309;49.790;18.972;2023-04-25T19:44:28;95980.63;;;8.19;78.06
76478;BME280;65309;49.790;18.972;2023-04-25T19:49:31;95986.34;;;8.15;77.63
76478;BME280;65309;49.790;18.972;2023-04-25T19:54:33;95991.50;;;8.08;76.45
76478;BME280;65309;49.790;18.972;2023-04-25T19:59:35;95990.06;;;8.12;73.56
76478;BME280;65309;49.790;18.972;2023-04-25T20:04:38;95990.53;;;8.11;73.34
76478;BME280;65309;49.790;18.972;2023-04-25T20:09:41;96002.44;;;8.22;69.69
76478;BME280;65309;49.790;18.972;2023-04-25T20:14:43;95994.19;;;8.22;69.20
76478;BME280;65309;49.790;18.972;2023-04-25T20:19:47;96011.00;;;8.24;66.62
76478;BME280;65309;49.790;18.972;2023-04-25T20:24:49;96010.66;;;8.17;67.27
76478;BME280;65309;49.790;18.972;2023-04-25T20:29:51;96012.03;;;8.07;68.30
76478;BME280;65309;49.790;18.972;2023-04-25T20:34:54;96020.56;;;8.09;67.25
76478;BME280;65309;49.790;18.972;2023-04-25T20:39:57;96026.75;;;8.04;68.55
76478;BME280;65309;49.790;18.972;2023-04-25T20:44:59;96039.13;;;7.94;68.07
76478;BME280;65309;49.790;18.972;2023-04-25T20:50:03;96042.59;;;7.89;68.70
76478;BME280;65309;49.790;18.972;2023-04-25T20:55:07;96051.72;;;7.80;69.38
76478;BME280;65309;49.790;18.972;2023-04-25T21:00:12;96060.19;;;7.76;69.78
76478;BME280;65309;49.790;18.972;2023-04-25T21:05:23;96060.28;;;7.67;69.62
76478;BME280;65309;49.790;18.972;2023-04-25T21:10:25;96056.22;;;7.63;69.90
76478;BME280;65309;49.790;18.972;2023-04-25T21:15:27;96059.16;;;7.59;70.97
76478;BME280;65309;49.790;18.972;2023-04-25T21:20:30;96057.72;;;7.49;72.52
76478;BME280;65309;49.790;18.972;2023-04-25T21:25:33;96059.25;;;7.50;72.32
76478;BME280;65309;49.790;18.972;2023-04-25T21:30:35;96055.19;;;7.46;73.27
76478;BME280;65309;49.790;18.972;2023-04-25T21:35:38;96053.00;;;7.35;73.98
76478;BME280;65309;49.790;18.972;2023-04-25T21:40:40;96062.50;;;7.34;75.03
76478;BME280;65309;49.790;18.972;2023-04-25T21:45:42;96071.13;;;7.27;75.28
76478;BME280;65309;49.790;18.972;2023-04-25T21:51:06;96072.38;;;7.26;75.76
76478;BME280;65309;49.790;18.972;2023-04-25T21:56:08;96073.59;;;7.25;76.24
76478;BME280;65309;49.790;18.972;2023-04-25T22:01:10;96072.72;;;7.19;76.27
76478;BME280;65309;49.790;18.972;2023-04-25T22:06:13;96083.34;;;7.11;76.52
76478;BME280;65309;49.790;18.972;2023-04-25T22:11:15;96079.56;;;7.09;76.34
76478;BME280;65309;49.790;18.972;2023-04-25T22:16:18;96088.47;;;7.04;76.41
76478;BME280;65309;49.790;18.972;2023-04-25T22:21:21;96089.69;;;7.03;78.82
76478;BME280;65309;49.790;18.972;2023-04-25T22:26:25;96091.88;;;6.99;81.14
76478;BME280;65309;49.790;18.972;2023-04-25T22:31:27;96103.31;;;6.82;83.44
76478;BME280;65309;49.790;18.972;2023-04-25T22:36:31;96101.59;;;6.70;85.18
76478;BME280;65309;49.790;18.972;2023-04-25T22:41:34;96110.72;;;6.53;84.81
76478;BME280;65309;49.790;18.972;2023-04-25T22:46:36;96115.63;;;6.48;85.68
76478;BME280;65309;49.790;18.972;2023-04-25T22:51:39;96132.28;;;6.45;85.64
76478;BME280;65309;49.790;18.972;2023-04-25T22:56:42;96142.00;;;5.98;85.07
76478;BME280;65309;49.790;18.972;2023-04-25T23:01:44;96143.69;;;5.36;90.65
76478;BME280;65309;49.790;18.972;2023-04-25T23:06:48;96155.91;;;5.07;91.68
76478;BME280;65309;49.790;18.972;2023-04-25T23:11:50;96148.91;;;5.06;94.77
76478;BME280;65309;49.790;18.972;2023-04-25T23:16:54;96152.13;;;5.05;95.07
76478;BME280;65309;49.790;18.972;2023-04-25T23:21:57;96160.94;;;5.00;94.63
76478;BME280;65309;49.790;18.972;2023-04-25T23:27:00;96166.59;;;4.96;94.19
76478;BME280;65309;49.790;18.972;2023-04-25T23:32:03;96165.50;;;5.03;97.73
76478;BME280;65309;49.790;18.972;2023-04-25T23:37:06;96171.91;;;5.00;96.42
76478;BME280;65309;49.790;18.972;2023-04-25T23:42:08;96174.19;;;5.10;93.72
76478;BME280;65309;49.790;18.972;2023-04-25T23:47:10;96185.13;;;5.29;91.21
76478;BME280;65309;49.790;18.972;2023-04-25T23:52:15;96182.72;;;5.22;91.19
76478;BME280;65309;49.790;18.972;2023-04-25T23:57:17;96193.38;;;5.20;90.81
